Hauptseite
METAR-TAF:

METAR-TAF

Flughäfen :

Portorož, Slowenien

Flughafen Portorož

Breite: 45-31N, Länge: 013-34E, Höhe: 95 m

Beobachtung

Neuester Wetterbericht von vor 23 Minuten, um 01:30 UTC
Wind 5 kt aus Ost/Südost
Temperatur 10°C
Luftfeuchtigkeit 93%
Luftdruck 1026 hPa
Sichtweite: 9000 m

METAR: LJPZ 170130Z AUTO 12005KT 9000 NCD 10/09 Q1026

Zeit: 03:53 (01:53 UTC)

Prognose

Neuester Wetterbericht von vor 2 Stunden und 53 Minuten, um 23:00 UTC
Gültige Prognose vom 17 um 00 UTC bis 17 um 09 UTC
Wind 5 kt aus Ost/Südost
Sichtweite 10 km oder mehr
keine Wolken unter 1500 m und keine Kumulonimbus oder Gewitterwolken
Wahrscheinlichkeit 40% :
Zeitweise
vom 17 um 00 UTC bis 17 um 07 UTC
Sichtweite: 5000 m
feuchter Dunst

TAF: LJPZ 162300Z 1700/1709 12005KT CAVOK PROB40 TEMPO 1700/1707 5000 BR NSC

Wetterbeobachtungen und Prognosen von mehr als 4000 Flughäfen (METAR und TAF Bericht).

Die verfügbaren Stationen werden durch gelbe und rote Markierungen auf der Karte dargestellt.

Führen Sie die Maus auf sie, um den Namen der Station zu sehen.

Darauf klicken, um die Beobachtung von Wetterbeobachtungen und Prognosen zu sehen.

Um die Karte zu ändern : klicken Sie auf den grünen Tasten mit einem schwarzen Kreuz Zum Vergrößern, auf den grünen Button mit einem Gedankenstrich zu verkleinern, oder auf die grünen Pfeile für benachbarte Karten.


METAR-TAF: